Time;durP1;ratioP1;P1;durP2;ratioP2;P2;SDS_P1;SDS_P2;PMS_P1;PMS_P2;Temp;Humidity;BMP_temperature;BMP_pressure;BME280_temperature;BME280_humidity;BME280_pressure;Samples;Min_cycle;Max_cycle;Signal;HPM_P1;HPM_P2
2024/02/29 00:04:33;;;;;;;;;;;;;;;20.04;41.17;95908.63;10502888;28;2026;-71
2024/02/29 00:09:35;;;;;;;;;;;;;;;20.03;41.38;95907.06;10505780;28;2722;-71
2024/02/29 00:14:38;;;;;;;;;;;;;;;20.01;41.03;95899.41;10501298;28;2021;-72
2024/02/29 00:19:38;;;;;;;;;;;;;;;19.99;41.52;95896.25;10498433;28;1906;-71
2024/02/29 00:24:39;;;;;;;;;;;;;;;19.96;41.12;95891.53;10509126;28;2224;-71
2024/02/29 00:29:39;;;;;;;;;;;;;;;19.95;41.35;95894.41;10503761;28;2025;-71
2024/02/29 00:34:39;;;;;;;;;;;;;;;19.94;41.48;95895.50;10508334;28;1997;-71
2024/02/29 00:39:39;;;;;;;;;;;;;;;19.92;41.21;95905.50;10503036;28;2044;-71
2024/02/29 00:44:40;;;;;;;;;;;;;;;19.90;41.31;95899.72;10496287;28;2089;-71
2024/02/29 00:49:41;;;;;;;;;;;;;;;19.88;41.29;95899.97;10499736;28;2639;-71
2024/02/29 00:54:41;;;;;;;;;;;;;;;19.86;40.86;95883.66;10499747;28;2053;-70
2024/02/29 00:59:41;;;;;;;;;;;;;;;19.84;41.12;95871.84;10500344;28;2081;-71
2024/02/29 01:04:42;;;;;;;;;;;;;;;19.83;41.28;95876.28;10506285;28;2033;-71
2024/02/29 01:09:42;;;;;;;;;;;;;;;19.81;40.83;95872.34;10498713;28;2056;-70
2024/02/29 01:14:42;;;;;;;;;;;;;;;19.78;41.22;95863.16;10502908;28;1958;-71
2024/02/29 01:19:42;;;;;;;;;;;;;;;19.78;41.15;95851.84;10511861;28;2094;-72
2024/02/29 01:24:43;;;;;;;;;;;;;;;19.76;41.18;95846.88;10511118;28;2506;-71
2024/02/29 01:29:43;;;;;;;;;;;;;;;19.74;41.33;95848.94;10506849;28;2046;-71
2024/02/29 01:34:43;;;;;;;;;;;;;;;19.72;41.12;95827.38;10512495;28;2098;-72
2024/02/29 01:39:43;;;;;;;;;;;;;;;19.71;41.41;95820.56;10502954;28;2138;-71
2024/02/29 01:45:02;;;;;;;;;;;;;;;19.70;40.82;95811.09;10507757;28;2073;-72
2024/02/29 01:50:05;;;;;;;;;;;;;;;19.69;40.82;95806.88;10511776;28;2160;-71
2024/02/29 01:55:05;;;;;;;;;;;;;;;19.68;40.83;95809.78;10506561;28;2031;-71
2024/02/29 02:00:06;;;;;;;;;;;;;;;19.66;40.97;95802.16;10511156;28;2077;-71
2024/02/29 02:05:06;;;;;;;;;;;;;;;19.66;41.24;95801.38;10508497;28;2170;-71
2024/02/29 02:10:07;;;;;;;;;;;;;;;19.64;40.87;95803.50;10504124;28;2381;-71
2024/02/29 02:15:10;;;;;;;;;;;;;;;19.61;41.20;95789.03;10496940;28;2081;-71
2024/02/29 02:20:18;;;;;;;;;;;;;;;19.61;41.15;95794.28;10506182;28;2073;-72
2024/02/29 02:25:19;;;;;;;;;;;;;;;19.61;41.02;95782.97;10509868;28;2121;-71
2024/02/29 02:30:19;;;;;;;;;;;;;;;19.60;40.94;95781.41;10502604;28;1984;-70
2024/02/29 02:35:19;;;;;;;;;;;;;;;19.58;41.15;95783.53;10508241;28;1943;-71
2024/02/29 02:40:19;;;;;;;;;;;;;;;19.57;41.29;95771.41;10507214;28;2125;-72
2024/02/29 02:45:20;;;;;;;;;;;;;;;19.54;41.14;95767.47;10506116;28;2018;-71
2024/02/29 02:50:20;;;;;;;;;;;;;;;19.53;41.33;95758.03;10505114;28;2054;-71
2024/02/29 02:55:20;;;;;;;;;;;;;;;19.52;41.10;95748.53;10509263;28;1982;-73
2024/02/29 03:00:21;;;;;;;;;;;;;;;19.51;40.87;95751.44;10504731;28;2056;-71
2024/02/29 03:05:22;;;;;;;;;;;;;;;19.49;41.01;95751.72;10504140;28;2523;-71
2024/02/29 03:10:22;;;;;;;;;;;;;;;19.48;40.94;95750.94;10501704;28;2229;-71
2024/02/29 03:15:22;;;;;;;;;;;;;;;19.48;40.68;95742.25;10506750;28;1987;-72
2024/02/29 03:20:22;;;;;;;;;;;;;;;19.45;41.05;95734.91;10498102;28;2192;-71
2024/02/29 03:25:23;;;;;;;;;;;;;;;19.43;40.99;95732.53;10503475;28;2042;-71
2024/02/29 03:30:23;;;;;;;;;;;;;;;19.44;41.03;95725.44;10501985;28;2216;-71
2024/02/29 03:35:24;;;;;;;;;;;;;;;19.42;41.15;95728.34;10512030;28;1921;-70
2024/02/29 03:40:24;;;;;;;;;;;;;;;19.41;40.90;95724.13;10520527;28;2092;-70
2024/02/29 03:45:24;;;;;;;;;;;;;;;19.40;41.13;95725.19;10502134;28;2429;-71
2024/02/29 03:50:24;;;;;;;;;;;;;;;19.39;40.98;95734.09;10506405;28;1947;-71
2024/02/29 03:55:25;;;;;;;;;;;;;;;19.38;40.86;95729.13;10508204;28;2009;-70
2024/02/29 04:00:25;;;;;;;;;;;;;;;19.36;40.69;95724.13;10511546;28;2037;-70
2024/02/29 04:05:26;;;;;;;;;;;;;;;19.36;40.89;95720.72;10503902;28;1939;-70
2024/02/29 04:10:30;;;;;;;;;;;;;;;19.35;41.09;95703.38;10498500;28;1978;-71
2024/02/29 04:15:30;;;;;;;;;;;;;;;19.32;41.00;95704.66;10507218;28;1989;-70
2024/02/29 04:20:30;;;;;;;;;;;;;;;19.32;41.10;95699.41;10503092;28;2050;-70
2024/02/29 04:25:31;;;;;;;;;;;;;;;19.31;41.08;95678.63;10504895;28;2310;-70
2024/02/29 04:30:31;;;;;;;;;;;;;;;19.30;40.96;95675.25;10511344;28;1923;-70
2024/02/29 04:35:31;;;;;;;;;;;;;;;19.28;41.09;95679.97;10506594;28;1969;-70
2024/02/29 04:40:32;;;;;;;;;;;;;;;19.28;40.85;95679.97;10512020;28;2263;-71
2024/02/29 04:45:33;;;;;;;;;;;;;;;19.27;41.01;95673.13;10502785;28;1929;-70
2024/02/29 04:50:33;;;;;;;;;;;;;;;19.26;40.96;95668.94;10507453;28;2108;-70
2024/02/29 04:55:34;;;;;;;;;;;;;;;19.24;40.94;95665.78;10510889;28;1970;-70
2024/02/29 05:00:34;;;;;;;;;;;;;;;19.24;40.94;95670.25;10512083;28;2092;-70
2024/02/29 05:05:34;;;;;;;;;;;;;;;19.23;41.10;95656.31;10513968;28;2111;-71
2024/02/29 05:10:35;;;;;;;;;;;;;;;19.24;41.26;95663.16;10519202;28;1862;-71
2024/02/29 05:15:36;;;;;;;;;;;;;;;19.27;41.14;95651.31;10514058;28;1979;-70
2024/02/29 05:20:36;;;;;;;;;;;;;;;19.31;40.89;95655.78;10511480;28;2026;-71
2024/02/29 05:25:37;;;;;;;;;;;;;;;19.39;39.77;95665.00;10511972;28;2371;-70
2024/02/29 05:30:37;;;;;;;;;;;;;;;19.43;39.81;95645.78;10510755;28;2378;-70
2024/02/29 05:35:37;;;;;;;;;;;;;;;19.48;39.40;95650.22;10512566;28;2042;-72
2024/02/29 05:40:38;;;;;;;;;;;;;;;19.53;39.03;95652.06;10512666;28;2089;-70
2024/02/29 05:45:40;;;;;;;;;;;;;;;19.55;39.21;95639.44;10511647;28;2243;-72
2024/02/29 05:50:40;;;;;;;;;;;;;;;19.60;38.96;95640.19;10509780;28;2173;-72
2024/02/29 05:55:41;;;;;;;;;;;;;;;19.64;39.26;95643.84;10505913;28;2030;-71
2024/02/29 06:00:41;;;;;;;;;;;;;;;19.70;38.83;95642.00;10503718;28;1905;-71
2024/02/29 06:05:41;;;;;;;;;;;;;;;19.72;39.33;95637.25;10508697;28;2580;-71
2024/02/29 06:10:42;;;;;;;;;;;;;;;19.74;38.98;95640.41;10523224;28;2213;-71
2024/02/29 06:15:42;;;;;;;;;;;;;;;19.78;38.81;95638.81;10503496;28;1984;-73
2024/02/29 06:20:43;;;;;;;;;;;;;;;19.81;38.25;95640.88;10498547;28;2022;-72
2024/02/29 06:25:43;;;;;;;;;;;;;;;19.88;38.61;95641.38;10513118;28;2094;-72
2024/02/29 06:30:43;;;;;;;;;;;;;;;19.87;39.22;95642.44;10509286;28;1990;-74
2024/02/29 06:35:44;;;;;;;;;;;;;;;19.89;38.59;95637.69;10506580;28;2207;-75
2024/02/29 06:40:44;;;;;;;;;;;;;;;19.90;38.65;95636.63;10512347;28;2094;-74
2024/02/29 06:45:50;;;;;;;;;;;;;;;19.95;38.81;95636.59;10508116;28;2036;-75
2024/02/29 06:50:50;;;;;;;;;;;;;;;19.97;39.00;95637.13;10507360;28;2013;-74
2024/02/29 06:55:51;;;;;;;;;;;;;;;20.01;38.42;95625.00;10504298;28;1993;-74
2024/02/29 07:00:51;;;;;;;;;;;;;;;20.01;38.78;95619.75;10513169;28;2539;-72
2024/02/29 07:05:52;;;;;;;;;;;;;;;20.03;38.27;95622.88;10512530;28;1946;-75
2024/02/29 07:10:52;;;;;;;;;;;;;;;20.06;39.08;95632.84;10509219;28;2021;-76
2024/02/29 07:15:52;;;;;;;;;;;;;;;20.07;38.61;95623.91;10516307;28;1990;-76
2024/02/29 07:20:53;;;;;;;;;;;;;;;20.11;38.54;95619.69;10506642;28;1855;-76
2024/02/29 07:25:53;;;;;;;;;;;;;;;20.08;38.30;95609.69;10504041;28;1913;-77
2024/02/29 07:30:53;;;;;;;;;;;;;;;20.10;38.71;95607.56;10508806;28;2093;-77
2024/02/29 07:35:54;;;;;;;;;;;;;;;20.11;38.65;95612.56;10509406;28;2041;-77
2024/02/29 07:40:54;;;;;;;;;;;;;;;20.18;38.79;95604.34;10505372;28;1914;-80
2024/02/29 07:45:54;;;;;;;;;;;;;;;20.20;38.89;95610.16;10504553;28;2559;-80
2024/02/29 07:50:55;;;;;;;;;;;;;;;20.19;38.76;95598.03;10503140;28;1892;-80
2024/02/29 07:55:55;;;;;;;;;;;;;;;20.21;38.53;95603.84;10506672;28;1988;-79
2024/02/29 08:00:56;;;;;;;;;;;;;;;20.22;38.55;95598.31;10503155;28;2104;-79
2024/02/29 08:05:56;;;;;;;;;;;;;;;20.22;38.82;95597.50;10506000;28;2017;-80
2024/02/29 08:10:57;;;;;;;;;;;;;;;20.25;38.97;95594.34;10499275;28;2085;-80
2024/02/29 08:15:57;;;;;;;;;;;;;;;20.28;38.85;95588.50;10499827;28;2030;-79
2024/02/29 08:20:57;;;;;;;;;;;;;;;20.25;38.27;95574.06;10506772;28;2009;-80
2024/02/29 08:25:57;;;;;;;;;;;;;;;20.31;38.45;95576.66;10510087;28;2342;-81
2024/02/29 08:30:58;;;;;;;;;;;;;;;20.32;38.84;95575.59;10506630;28;2078;-80
2024/02/29 08:35:58;;;;;;;;;;;;;;;20.31;38.50;95569.56;10503252;28;1911;-79
2024/02/29 08:40:58;;;;;;;;;;;;;;;20.33;38.74;95567.44;10500212;28;1993;-79
2024/02/29 08:45:58;;;;;;;;;;;;;;;20.34;38.10;95562.97;10512098;28;1879;-81
2024/02/29 08:50:59;;;;;;;;;;;;;;;20.34;38.34;95553.19;10508389;28;1977;-80
2024/02/29 08:55:59;;;;;;;;;;;;;;;20.36;38.21;95547.66;10502966;28;2245;-77
2024/02/29 09:01:00;;;;;;;;;;;;;;;20.37;37.77;95534.22;10502703;28;1986;-80
2024/02/29 09:06:00;;;;;;;;;;;;;;;20.36;38.35;95531.88;10503898;28;1852;-77
2024/02/29 09:11:01;;;;;;;;;;;;;;;20.35;38.27;95520.56;10495193;28;2065;-76
2024/02/29 09:16:02;;;;;;;;;;;;;;;20.37;38.60;95515.78;10502395;28;1906;-76
2024/02/29 09:21:02;;;;;;;;;;;;;;;20.37;38.29;95504.47;10507293;28;2879;-77
2024/02/29 09:26:02;;;;;;;;;;;;;;;20.39;38.29;95499.72;10505389;28;1925;-77
2024/02/29 09:31:05;;;;;;;;;;;;;;;20.41;38.33;95487.06;10501467;28;2238;-75
2024/02/29 09:36:11;;;;;;;;;;;;;;;20.42;38.58;95483.38;10501772;28;2164;-76
2024/02/29 09:41:11;;;;;;;;;;;;;;;20.43;38.65;95477.81;10509070;28;2078;-78
2024/02/29 09:46:12;;;;;;;;;;;;;;;20.42;38.55;95457.84;10511980;28;2106;-77
2024/02/29 09:51:16;;;;;;;;;;;;;;;20.45;38.88;95457.25;10507863;28;2089;-76
2024/02/29 09:56:17;;;;;;;;;;;;;;;20.47;38.02;95454.34;10510260;28;2075;-77
2024/02/29 10:01:19;;;;;;;;;;;;;;;20.48;38.12;95450.66;10519211;28;2056;-77
2024/02/29 10:06:20;;;;;;;;;;;;;;;20.48;38.31;95450.66;10504999;28;2025;-76
2024/02/29 10:11:21;;;;;;;;;;;;;;;20.50;38.51;95446.69;10509420;28;2497;-74
2024/02/29 10:16:21;;;;;;;;;;;;;;;20.50;38.33;95441.44;10510650;28;2104;-77
2024/02/29 10:21:21;;;;;;;;;;;;;;;20.55;38.59;95444.00;10510073;28;1933;-78
2024/02/29 10:26:21;;;;;;;;;;;;;;;20.52;39.00;95439.31;10507887;28;1989;-78
2024/02/29 10:31:22;;;;;;;;;;;;;;;20.56;39.24;95442.16;10505131;28;2081;-78
2024/02/29 10:36:22;;;;;;;;;;;;;;;20.56;39.14;95421.09;10515735;28;2089;-77
2024/02/29 10:41:23;;;;;;;;;;;;;;;20.51;38.75;95414.03;10509892;28;2050;-78
2024/02/29 10:46:23;;;;;;;;;;;;;;;20.54;38.96;95410.84;10500940;28;2035;-77
2024/02/29 10:51:36;;;;;;;;;;;;;;;20.52;39.04;95412.97;10504385;28;1986;-77
2024/02/29 10:56:37;;;;;;;;;;;;;;;20.61;39.07;95411.25;10510242;28;2029;-76
2024/02/29 11:01:38;;;;;;;;;;;;;;;20.56;38.58;95390.28;10510128;28;2018;-77
2024/02/29 11:06:45;;;;;;;;;;;;;;;20.57;38.82;95391.03;10512868;28;2298;-78
2024/02/29 11:11:47;;;;;;;;;;;;;;;20.52;39.06;95383.22;10508855;28;2132;-77
2024/02/29 11:16:47;;;;;;;;;;;;;;;20.54;39.06;95375.81;10511015;28;2068;-77
2024/02/29 11:21:47;;;;;;;;;;;;;;;20.53;39.49;95367.13;10511907;28;1912;-78
2024/02/29 11:26:54;;;;;;;;;;;;;;;20.58;39.24;95356.53;10511514;28;2070;-79
2024/02/29 11:31:56;;;;;;;;;;;;;;;20.59;39.46;95358.09;10521385;28;2046;-75
2024/02/29 11:36:56;;;;;;;;;;;;;;;20.58;39.46;95345.22;10506171;28;1914;-79
2024/02/29 11:42:03;;;;;;;;;;;;;;;20.58;39.44;95335.47;10508821;28;2026;-75
2024/02/29 11:47:03;;;;;;;;;;;;;;;20.58;39.66;95332.84;10509292;28;1974;-78
2024/02/29 11:52:03;;;;;;;;;;;;;;;20.57;39.77;95322.56;10504889;28;2280;-78
2024/02/29 11:57:04;;;;;;;;;;;;;;;20.57;39.97;95320.72;10495940;28;2002;-68
2024/02/29 12:02:05;;;;;;;;;;;;;;;20.59;40.00;95313.31;10515313;28;1978;-71
2024/02/29 12:07:05;;;;;;;;;;;;;;;20.61;40.02;95310.44;10508328;28;2235;-68
2024/02/29 12:12:06;;;;;;;;;;;;;;;20.61;40.00;95294.63;10507178;28;2004;-68
2024/02/29 12:17:07;;;;;;;;;;;;;;;20.60;39.94;95290.41;10502970;28;2219;-68
2024/02/29 12:22:13;;;;;;;;;;;;;;;20.62;39.83;95277.75;10500501;28;2099;-68
2024/02/29 12:27:14;;;;;;;;;;;;;;;20.62;40.16;95275.13;10502267;28;2124;-68
2024/02/29 12:32:14;;;;;;;;;;;;;;;20.66;40.60;95270.84;10486407;28;2117;-68
2024/02/29 12:37:14;;;;;;;;;;;;;;;20.69;40.34;95267.66;10494835;28;2763;-68
2024/02/29 12:42:15;;;;;;;;;;;;;;;20.71;39.97;95249.72;10504088;28;2223;-68
2024/02/29 12:47:15;;;;;;;;;;;;;;;20.73;40.14;95242.31;10494538;28;2014;-68
2024/02/29 12:52:15;;;;;;;;;;;;;;;20.74;39.79;95220.16;10494359;28;2045;-68
2024/02/29 12:57:15;;;;;;;;;;;;;;;20.76;39.93;95218.81;10495544;28;2109;-68
2024/02/29 13:02:16;;;;;;;;;;;;;;;20.78;40.21;95208.75;10511252;28;2045;-69
2024/02/29 13:07:16;;;;;;;;;;;;;;;20.85;40.17;95196.03;10500824;28;1998;-69
2024/02/29 13:12:17;;;;;;;;;;;;;;;20.86;40.08;95192.31;10510393;28;1983;-69
2024/02/29 13:17:17;;;;;;;;;;;;;;;20.89;39.91;95186.47;10500607;28;2528;-69
2024/02/29 13:22:17;;;;;;;;;;;;;;;20.90;39.44;95180.13;10506982;28;1881;-68
2024/02/29 13:27:18;;;;;;;;;;;;;;;20.98;39.97;95168.91;10514584;28;1892;-67
2024/02/29 13:32:18;;;;;;;;;;;;;;;21.02;39.63;95143.56;10495362;28;2133;-68
2024/02/29 13:37:18;;;;;;;;;;;;;;;21.04;39.67;95151.22;10511606;28;2220;-67
2024/02/29 13:42:19;;;;;;;;;;;;;;;21.08;39.63;95138.22;10503181;28;2018;-68
2024/02/29 13:47:19;;;;;;;;;;;;;;;21.06;39.33;95126.09;10504078;28;1969;-68
2024/02/29 13:52:19;;;;;;;;;;;;;;;21.08;39.33;95128.47;10507379;28;2009;-68
2024/02/29 13:57:22;;;;;;;;;;;;;;;21.08;39.32;95111.88;10510606;28;1906;-68
2024/02/29 14:02:22;;;;;;;;;;;;;;;21.01;39.29;95105.09;10505287;28;2551;-69
2024/02/29 14:07:23;;;;;;;;;;;;;;;20.98;39.96;95110.94;10508100;28;1899;-67
2024/02/29 14:12:25;;;;;;;;;;;;;;;20.88;39.81;95105.84;10512247;28;2184;-69
2024/02/29 14:17:25;;;;;;;;;;;;;;;20.87;39.94;95100.88;10508268;28;2120;-68
2024/02/29 14:22:25;;;;;;;;;;;;;;;20.82;39.77;95096.50;10508085;28;1895;-68
2024/02/29 14:27:25;;;;;;;;;;;;;;;20.76;40.35;95084.47;10512203;28;1938;-69
2024/02/29 14:32:26;;;;;;;;;;;;;;;20.69;41.08;95073.53;10517213;28;2105;-68
2024/02/29 14:37:26;;;;;;;;;;;;;;;20.66;40.72;95065.44;10499381;28;2053;-68
2024/02/29 14:42:27;;;;;;;;;;;;;;;20.63;41.22;95055.50;10503662;28;2068;-69
2024/02/29 14:47:27;;;;;;;;;;;;;;;20.62;41.23;95049.44;10508233;28;2309;-68
2024/02/29 14:52:27;;;;;;;;;;;;;;;20.64;40.32;95049.16;10511872;28;1938;-68
2024/02/29 14:57:28;;;;;;;;;;;;;;;20.66;40.19;95047.78;10499355;28;1957;-68
2024/02/29 15:02:28;;;;;;;;;;;;;;;20.70;39.31;95038.22;10515975;28;2070;-68
2024/02/29 15:07:29;;;;;;;;;;;;;;;20.72;39.93;95036.09;10505073;28;1962;-68
2024/02/29 15:12:29;;;;;;;;;;;;;;;20.77;39.89;95035.22;10507413;28;1990;-68
2024/02/29 15:17:30;;;;;;;;;;;;;;;20.73;40.24;95042.91;10501975;28;1958;-68
2024/02/29 15:22:30;;;;;;;;;;;;;;;20.74;40.18;95028.69;10518612;28;1920;-68
2024/02/29 15:27:37;;;;;;;;;;;;;;;20.74;40.19;95026.03;10505943;28;2454;-68
2024/02/29 15:32:38;;;;;;;;;;;;;;;20.75;39.97;95009.16;10501423;28;2289;-67
2024/02/29 15:37:38;;;;;;;;;;;;;;;20.76;40.03;95005.47;10503321;28;2108;-68
2024/02/29 15:42:38;;;;;;;;;;;;;;;20.80;40.43;95001.16;10509151;28;1901;-68
2024/02/29 15:47:41;;;;;;;;;;;;;;;20.79;40.74;94994.31;10499901;28;2084;-69
2024/02/29 15:52:41;;;;;;;;;;;;;;;20.81;40.61;94989.53;10503512;28;1963;-68
2024/02/29 15:57:41;;;;;;;;;;;;;;;20.83;40.68;94978.75;10507054;28;1996;-68
2024/02/29 16:02:42;;;;;;;;;;;;;;;20.83;40.71;94976.09;10503639;28;2104;-68
2024/02/29 16:07:42;;;;;;;;;;;;;;;20.85;40.49;94966.06;10512920;28;1977;-69
2024/02/29 16:12:42;;;;;;;;;;;;;;;20.85;40.66;94972.13;10503913;28;2253;-69
2024/02/29 16:17:42;;;;;;;;;;;;;;;20.89;40.63;94957.28;10492705;28;2142;-67
2024/02/29 16:22:43;;;;;;;;;;;;;;;20.87;40.55;94948.88;10506028;28;2109;-71
2024/02/29 16:27:44;;;;;;;;;;;;;;;20.87;40.23;94948.88;10498767;28;2016;-67
2024/02/29 16:32:44;;;;;;;;;;;;;;;20.86;40.36;94957.06;10503079;28;2034;-68
2024/02/29 16:37:44;;;;;;;;;;;;;;;20.88;40.57;94949.66;10502365;28;2149;-71
2024/02/29 16:42:45;;;;;;;;;;;;;;;20.87;40.57;94941.00;10508100;28;2062;-67
2024/02/29 16:47:45;;;;;;;;;;;;;;;20.90;40.36;94936.97;10510948;28;2058;-69
2024/02/29 16:52:45;;;;;;;;;;;;;;;20.88;40.08;94931.22;10503924;28;2180;-68
2024/02/29 16:57:45;;;;;;;;;;;;;;;20.88;40.49;94929.34;10513399;28;2187;-68
2024/02/29 17:02:46;;;;;;;;;;;;;;;20.84;40.34;94922.34;10512828;28;1910;-69
2024/02/29 17:07:47;;;;;;;;;;;;;;;20.87;40.29;94927.81;10504237;28;1883;-70
2024/02/29 17:12:47;;;;;;;;;;;;;;;20.86;39.97;94922.81;10500723;28;2682;-69
2024/02/29 17:17:47;;;;;;;;;;;;;;;20.85;40.11;94919.44;10501965;28;2022;-69
2024/02/29 17:22:48;;;;;;;;;;;;;;;20.85;39.53;94924.69;10505426;28;1930;-69
2024/02/29 17:27:48;;;;;;;;;;;;;;;20.84;39.48;94914.44;10513100;28;2207;-69
2024/02/29 17:32:49;;;;;;;;;;;;;;;20.87;39.45;94905.97;10510749;28;1986;-70
2024/02/29 17:37:49;;;;;;;;;;;;;;;20.93;39.53;94910.81;10525440;28;1984;-69
2024/02/29 17:42:50;;;;;;;;;;;;;;;20.95;39.56;94905.25;10512553;28;1933;-69
2024/02/29 17:47:50;;;;;;;;;;;;;;;21.04;39.01;94909.56;10509598;28;2015;-71
2024/02/29 17:52:50;;;;;;;;;;;;;;;21.04;39.38;94900.88;10514913;28;2136;-82
2024/02/29 17:57:50;;;;;;;;;;;;;;;21.04;39.48;94893.75;10513128;28;2252;-74
2024/02/29 18:02:51;;;;;;;;;;;;;;;21.06;39.43;94890.84;10508466;28;2158;-76
2024/02/29 18:07:51;;;;;;;;;;;;;;;21.06;39.61;94883.69;10508847;28;2274;-73
2024/02/29 18:12:51;;;;;;;;;;;;;;;21.16;38.71;94877.44;10511024;28;1875;-74
2024/02/29 18:17:52;;;;;;;;;;;;;;;21.14;38.59;94870.88;10511509;28;2021;-76
2024/02/29 18:22:52;;;;;;;;;;;;;;;21.10;38.55;94867.28;10514692;28;2136;-80
2024/02/29 18:27:52;;;;;;;;;;;;;;;21.13;39.36;94856.94;10511272;28;1871;-78
2024/02/29 18:32:54;;;;;;;;;;;;;;;21.16;38.91;94858.97;10514772;28;1877;-75
2024/02/29 18:37:54;;;;;;;;;;;;;;;21.15;38.57;94856.63;10516748;28;2107;-74
2024/02/29 18:42:54;;;;;;;;;;;;;;;21.15;38.47;94854.78;10512151;28;1897;-75
2024/02/29 18:47:55;;;;;;;;;;;;;;;21.12;38.21;94852.75;10517560;28;1914;-74
2024/02/29 18:52:55;;;;;;;;;;;;;;;21.16;38.29;94842.38;10520478;28;1970;-71
2024/02/29 18:57:56;;;;;;;;;;;;;;;21.17;38.70;94836.81;10513372;28;2097;-67
2024/02/29 19:02:56;;;;;;;;;;;;;;;21.19;38.27;94828.59;10517766;28;2297;-67
2024/02/29 19:07:56;;;;;;;;;;;;;;;21.17;38.02;94833.38;10504247;28;2066;-66
2024/02/29 19:12:56;;;;;;;;;;;;;;;21.18;38.33;94827.06;10504630;28;2025;-65
2024/02/29 19:17:57;;;;;;;;;;;;;;;21.18;37.66;94824.41;10505289;28;2043;-78
2024/02/29 19:22:57;;;;;;;;;;;;;;;21.19;37.97;94831.22;10499471;28;2039;-82
2024/02/29 19:27:57;;;;;;;;;;;;;;;21.16;38.36;94823.94;10513870;28;2053;-79
2024/02/29 19:32:58;;;;;;;;;;;;;;;21.21;37.84;94831.72;10521387;28;2077;-82
2024/02/29 19:37:58;;;;;;;;;;;;;;;21.23;37.97;94822.44;10512139;28;1985;-80
2024/02/29 19:42:58;;;;;;;;;;;;;;;21.20;38.11;94819.63;10506780;28;2427;-80
2024/02/29 19:47:58;;;;;;;;;;;;;;;21.20;38.05;94814.34;10514611;28;2053;-85
2024/02/29 19:52:59;;;;;;;;;;;;;;;21.19;38.26;94812.78;10514789;28;2165;-84
2024/02/29 19:57:59;;;;;;;;;;;;;;;21.15;38.52;94796.00;10519530;28;2370;-86
2024/02/29 20:02:59;;;;;;;;;;;;;;;21.13;37.68;94796.31;10506502;28;2037;-84
2024/02/29 20:08:02;;;;;;;;;;;;;;;21.11;38.24;94784.50;10510170;28;2097;-85
2024/02/29 20:13:02;;;;;;;;;;;;;;;21.06;38.05;94773.00;10507610;28;2042;-75
2024/02/29 20:18:02;;;;;;;;;;;;;;;21.06;38.29;94773.00;10512035;28;2295;-71
2024/02/29 20:23:03;;;;;;;;;;;;;;;21.03;38.04;94772.84;10503402;28;2049;-70
2024/02/29 20:28:03;;;;;;;;;;;;;;;21.00;38.20;94774.19;10514628;28;2042;-73
2024/02/29 20:33:03;;;;;;;;;;;;;;;21.00;38.65;94773.41;10507690;28;2109;-82
2024/02/29 20:38:04;;;;;;;;;;;;;;;20.98;37.88;94778.19;10516707;28;1961;-81
2024/02/29 20:43:04;;;;;;;;;;;;;;;21.00;38.07;94784.72;10503144;28;2314;-76
2024/02/29 20:48:05;;;;;;;;;;;;;;;20.99;38.46;94775.28;10507523;28;1961;-77
2024/02/29 20:53:05;;;;;;;;;;;;;;;20.99;37.30;94767.38;10504976;28;1915;-77
2024/02/29 20:58:05;;;;;;;;;;;;;;;20.97;37.52;94772.16;10507295;28;2151;-77
2024/02/29 21:03:06;;;;;;;;;;;;;;;20.96;37.91;94752.16;10508905;28;2125;-77
2024/02/29 21:08:06;;;;;;;;;;;;;;;20.95;37.82;94758.50;10504946;28;2024;-77
2024/02/29 21:13:06;;;;;;;;;;;;;;;20.98;36.53;94757.09;10508515;28;2064;-78
2024/02/29 21:18:07;;;;;;;;;;;;;;;20.95;36.74;94750.59;10508571;28;2096;-78
2024/02/29 21:23:07;;;;;;;;;;;;;;;20.94;37.12;94740.34;10506700;28;2098;-79
2024/02/29 21:28:07;;;;;;;;;;;;;;;20.93;37.67;94736.97;10506802;28;1944;-78
2024/02/29 21:33:08;;;;;;;;;;;;;;;20.92;37.21;94730.13;10508028;28;1927;-77
2024/02/29 21:38:08;;;;;;;;;;;;;;;20.90;37.77;94720.94;10512927;28;2526;-76
2024/02/29 21:43:10;;;;;;;;;;;;;;;20.88;38.15;94717.84;10516865;28;1991;-81
2024/02/29 21:48:11;;;;;;;;;;;;;;;20.86;38.17;94704.97;10517698;28;2009;-79
2024/02/29 21:53:11;;;;;;;;;;;;;;;20.85;37.88;94700.00;10516404;28;2094;-78
2024/02/29 21:58:11;;;;;;;;;;;;;;;20.83;37.82;94697.69;10509651;28;2224;-78
2024/02/29 22:03:12;;;;;;;;;;;;;;;20.79;38.10;94696.69;10507485;28;2069;-78
2024/02/29 22:08:12;;;;;;;;;;;;;;;20.76;38.06;94686.78;10507278;28;2047;-77
2024/02/29 22:13:12;;;;;;;;;;;;;;;20.74;37.99;94669.72;10508928;28;1990;-77
2024/02/29 22:18:12;;;;;;;;;;;;;;;20.74;37.23;94659.97;10501367;28;1971;-78
2024/02/29 22:23:13;;;;;;;;;;;;;;;20.70;37.83;94656.38;10512082;28;1957;-77
2024/02/29 22:28:13;;;;;;;;;;;;;;;20.67;37.88;94667.50;10513115;28;1982;-77
2024/02/29 22:33:13;;;;;;;;;;;;;;;20.64;38.05;94668.13;10510310;28;2295;-77
2024/02/29 22:38:14;;;;;;;;;;;;;;;20.63;37.67;94668.44;10502990;28;2209;-77
2024/02/29 22:43:14;;;;;;;;;;;;;;;20.60;37.87;94663.75;10519171;28;1924;-77
2024/02/29 22:48:15;;;;;;;;;;;;;;;20.57;38.55;94664.31;10509010;28;2037;-76
2024/02/29 22:53:16;;;;;;;;;;;;;;;20.55;38.08;94667.25;10501048;28;2338;-77
2024/02/29 22:58:16;;;;;;;;;;;;;;;20.52;38.10;94673.16;10504591;28;2012;-77
2024/02/29 23:03:16;;;;;;;;;;;;;;;20.50;38.65;94663.97;10508735;28;1982;-75
2024/02/29 23:08:16;;;;;;;;;;;;;;;20.47;37.89;94652.19;10505234;28;2070;-77
2024/02/29 23:13:17;;;;;;;;;;;;;;;20.45;37.85;94643.81;10501125;28;2036;-77
2024/02/29 23:18:17;;;;;;;;;;;;;;;20.42;38.47;94644.41;10510306;28;1986;-77
2024/02/29 23:23:18;;;;;;;;;;;;;;;20.40;38.26;94633.41;10509678;28;2298;-77
2024/02/29 23:28:18;;;;;;;;;;;;;;;20.39;38.43;94626.59;10511057;28;2199;-76
2024/02/29 23:33:18;;;;;;;;;;;;;;;20.37;38.83;94631.38;10507757;28;2037;-78
2024/02/29 23:38:18;;;;;;;;;;;;;;;20.35;38.30;94641.41;10497790;28;2038;-76
2024/02/29 23:43:18;;;;;;;;;;;;;;;20.33;38.82;94640.94;10510322;28;1934;-75
2024/02/29 23:48:21;;;;;;;;;;;;;;;20.31;38.84;94634.41;10501946;28;2121;-75
2024/02/29 23:53:21;;;;;;;;;;;;;;;20.30;39.25;94638.88;10506794;28;2107;-76
2024/02/29 23:58:21;;;;;;;;;;;;;;;20.26;39.01;94630.81;10511183;28;2105;-76
